sensor_id;sensor_type;location;lat;lon;timestamp;P1;durP1;ratioP1;P2;durP2;ratioP2
78489;SDS011;67776;52.012;4.736;2023-06-22T00:00:49;13.48;;;7.25;;
78489;SDS011;67776;52.012;4.736;2023-06-22T00:03:16;12.98;;;7.60;;
78489;SDS011;67776;52.012;4.736;2023-06-22T00:05:49;15.45;;;7.82;;
78489;SDS011;67776;52.012;4.736;2023-06-22T00:08:15;14.17;;;7.90;;
78489;SDS011;67776;52.012;4.736;2023-06-22T00:10:42;12.45;;;7.50;;
78489;SDS011;67776;52.012;4.736;2023-06-22T00:13:08;14.65;;;7.70;;
78489;SDS011;67776;52.012;4.736;2023-06-22T00:15:35;14.53;;;7.67;;
78489;SDS011;67776;52.012;4.736;2023-06-22T00:18:01;14.32;;;7.55;;
78489;SDS011;67776;52.012;4.736;2023-06-22T00:20:27;14.95;;;7.85;;
78489;SDS011;67776;52.012;4.736;2023-06-22T00:22:56;13.35;;;7.72;;
78489;SDS011;67776;52.012;4.736;2023-06-22T00:25:22;13.30;;;7.60;;
78489;SDS011;67776;52.012;4.736;2023-06-22T00:27:48;16.13;;;8.00;;
78489;SDS011;67776;52.012;4.736;2023-06-22T00:30:17;12.23;;;7.38;;
78489;SDS011;67776;52.012;4.736;2023-06-22T00:32:43;14.35;;;7.45;;
78489;SDS011;67776;52.012;4.736;2023-06-22T00:35:09;17.03;;;8.50;;
78489;SDS011;67776;52.012;4.736;2023-06-22T00:37:35;15.02;;;8.70;;
78489;SDS011;67776;52.012;4.736;2023-06-22T00:40:01;14.95;;;8.70;;
78489;SDS011;67776;52.012;4.736;2023-06-22T00:42:28;14.90;;;8.63;;
78489;SDS011;67776;52.012;4.736;2023-06-22T00:44:54;17.40;;;8.90;;
78489;SDS011;67776;52.012;4.736;2023-06-22T00:47:19;14.83;;;9.40;;
78489;SDS011;67776;52.012;4.736;2023-06-22T00:49:45;17.57;;;9.83;;
78489;SDS011;67776;52.012;4.736;2023-06-22T00:52:18;16.73;;;9.47;;
78489;SDS011;67776;52.012;4.736;2023-06-22T00:54:50;17.30;;;9.77;;
78489;SDS011;67776;52.012;4.736;2023-06-22T00:57:19;16.15;;;9.45;;
78489;SDS011;67776;52.012;4.736;2023-06-22T00:59:45;18.00;;;10.40;;
78489;SDS011;67776;52.012;4.736;2023-06-22T01:02:12;19.35;;;10.80;;
78489;SDS011;67776;52.012;4.736;2023-06-22T01:04:41;19.70;;;11.93;;
78489;SDS011;67776;52.012;4.736;2023-06-22T01:10:03;22.70;;;12.30;;
78489;SDS011;67776;52.012;4.736;2023-06-22T01:12:53;19.67;;;12.02;;
78489;SDS011;67776;52.012;4.736;2023-06-22T01:15:25;21.33;;;12.55;;
78489;SDS011;67776;52.012;4.736;2023-06-22T01:17:55;26.15;;;12.60;;
78489;SDS011;67776;52.012;4.736;2023-06-22T01:20:22;22.08;;;12.50;;
78489;SDS011;67776;52.012;4.736;2023-06-22T01:23:10;20.23;;;12.03;;
78489;SDS011;67776;52.012;4.736;2023-06-22T01:25:49;21.77;;;13.25;;
78489;SDS011;67776;52.012;4.736;2023-06-22T01:31:08;26.58;;;14.65;;
78489;SDS011;67776;52.012;4.736;2023-06-22T01:33:36;25.42;;;14.00;;
78489;SDS011;67776;52.012;4.736;2023-06-22T01:36:04;26.10;;;15.43;;
78489;SDS011;67776;52.012;4.736;2023-06-22T01:38:32;27.15;;;14.55;;
78489;SDS011;67776;52.012;4.736;2023-06-22T01:40:58;28.05;;;14.93;;
78489;SDS011;67776;52.012;4.736;2023-06-22T01:43:26;27.52;;;15.80;;
78489;SDS011;67776;52.012;4.736;2023-06-22T01:45:53;27.20;;;15.63;;
78489;SDS011;67776;52.012;4.736;2023-06-22T01:48:19;28.93;;;16.50;;
78489;SDS011;67776;52.012;4.736;2023-06-22T01:50:44;29.38;;;16.65;;
78489;SDS011;67776;52.012;4.736;2023-06-22T01:53:10;33.33;;;17.67;;
78489;SDS011;67776;52.012;4.736;2023-06-22T01:55:35;29.33;;;16.37;;
78489;SDS011;67776;52.012;4.736;2023-06-22T01:58:01;26.03;;;16.17;;
78489;SDS011;67776;52.012;4.736;2023-06-22T02:00:26;33.28;;;17.90;;
78489;SDS011;67776;52.012;4.736;2023-06-22T02:02:59;28.97;;;18.23;;
78489;SDS011;67776;52.012;4.736;2023-06-22T02:05:38;33.03;;;19.13;;
78489;SDS011;67776;52.012;4.736;2023-06-22T02:08:19;31.33;;;17.58;;
78489;SDS011;67776;52.012;4.736;2023-06-22T02:10:47;32.97;;;19.65;;
78489;SDS011;67776;52.012;4.736;2023-06-22T02:13:14;32.13;;;19.38;;
78489;SDS011;67776;52.012;4.736;2023-06-22T02:15:40;33.73;;;19.27;;
78489;SDS011;67776;52.012;4.736;2023-06-22T02:18:05;31.17;;;18.73;;
78489;SDS011;67776;52.012;4.736;2023-06-22T02:20:31;34.70;;;18.77;;
78489;SDS011;67776;52.012;4.736;2023-06-22T02:22:57;30.13;;;18.10;;
78489;SDS011;67776;52.012;4.736;2023-06-22T02:25:22;34.90;;;19.03;;
78489;SDS011;67776;52.012;4.736;2023-06-22T02:27:48;35.03;;;20.33;;
78489;SDS011;67776;52.012;4.736;2023-06-22T02:30:13;34.63;;;20.33;;
78489;SDS011;67776;52.012;4.736;2023-06-22T02:32:40;34.13;;;18.97;;
78489;SDS011;67776;52.012;4.736;2023-06-22T02:35:07;32.47;;;19.67;;
78489;SDS011;67776;52.012;4.736;2023-06-22T02:37:34;32.00;;;19.77;;
78489;SDS011;67776;52.012;4.736;2023-06-22T02:40:05;34.33;;;20.05;;
78489;SDS011;67776;52.012;4.736;2023-06-22T02:42:33;32.85;;;19.65;;
78489;SDS011;67776;52.012;4.736;2023-06-22T02:44:58;33.03;;;19.33;;
78489;SDS011;67776;52.012;4.736;2023-06-22T02:47:23;33.83;;;19.77;;
78489;SDS011;67776;52.012;4.736;2023-06-22T02:49:49;33.67;;;19.63;;
78489;SDS011;67776;52.012;4.736;2023-06-22T02:52:14;31.73;;;19.10;;
78489;SDS011;67776;52.012;4.736;2023-06-22T02:54:40;32.30;;;19.52;;
78489;SDS011;67776;52.012;4.736;2023-06-22T02:57:05;30.63;;;19.47;;
78489;SDS011;67776;52.012;4.736;2023-06-22T02:59:30;33.17;;;19.73;;
78489;SDS011;67776;52.012;4.736;2023-06-22T03:01:56;32.80;;;20.00;;
78489;SDS011;67776;52.012;4.736;2023-06-22T03:04:21;34.08;;;19.38;;
78489;SDS011;67776;52.012;4.736;2023-06-22T03:06:47;32.40;;;19.43;;
78489;SDS011;67776;52.012;4.736;2023-06-22T03:09:15;32.65;;;19.73;;
78489;SDS011;67776;52.012;4.736;2023-06-22T03:11:42;34.30;;;19.02;;
78489;SDS011;67776;52.012;4.736;2023-06-22T03:14:08;32.27;;;19.10;;
78489;SDS011;67776;52.012;4.736;2023-06-22T03:16:33;31.40;;;18.93;;
78489;SDS011;67776;52.012;4.736;2023-06-22T03:18:59;33.75;;;19.35;;
78489;SDS011;67776;52.012;4.736;2023-06-22T03:21:27;32.73;;;19.63;;
78489;SDS011;67776;52.012;4.736;2023-06-22T03:23:53;34.05;;;20.15;;
78489;SDS011;67776;52.012;4.736;2023-06-22T03:26:19;35.20;;;20.03;;
78489;SDS011;67776;52.012;4.736;2023-06-22T03:28:45;34.38;;;19.95;;
78489;SDS011;67776;52.012;4.736;2023-06-22T03:31:10;36.57;;;20.77;;
78489;SDS011;67776;52.012;4.736;2023-06-22T03:33:36;35.10;;;20.27;;
78489;SDS011;67776;52.012;4.736;2023-06-22T03:36:01;32.88;;;20.85;;
78489;SDS011;67776;52.012;4.736;2023-06-22T03:38:27;34.37;;;20.17;;
78489;SDS011;67776;52.012;4.736;2023-06-22T03:40:53;33.00;;;19.73;;
78489;SDS011;67776;52.012;4.736;2023-06-22T03:43:18;37.03;;;20.40;;
78489;SDS011;67776;52.012;4.736;2023-06-22T03:45:44;34.63;;;20.40;;
78489;SDS011;67776;52.012;4.736;2023-06-22T03:48:10;33.65;;;19.45;;
78489;SDS011;67776;52.012;4.736;2023-06-22T03:50:36;34.53;;;19.35;;
78489;SDS011;67776;52.012;4.736;2023-06-22T03:53:02;33.27;;;19.80;;
78489;SDS011;67776;52.012;4.736;2023-06-22T03:55:27;33.60;;;19.53;;
78489;SDS011;67776;52.012;4.736;2023-06-22T03:57:53;36.72;;;20.52;;
78489;SDS011;67776;52.012;4.736;2023-06-22T04:00:21;34.65;;;20.02;;
78489;SDS011;67776;52.012;4.736;2023-06-22T04:02:47;34.17;;;19.70;;
78489;SDS011;67776;52.012;4.736;2023-06-22T04:05:12;34.87;;;19.93;;
78489;SDS011;67776;52.012;4.736;2023-06-22T04:07:38;33.63;;;19.35;;
78489;SDS011;67776;52.012;4.736;2023-06-22T04:10:04;31.38;;;20.00;;
78489;SDS011;67776;52.012;4.736;2023-06-22T04:12:30;32.77;;;19.23;;
78489;SDS011;67776;52.012;4.736;2023-06-22T04:14:55;33.33;;;19.27;;
78489;SDS011;67776;52.012;4.736;2023-06-22T04:17:21;33.40;;;18.98;;
78489;SDS011;67776;52.012;4.736;2023-06-22T04:19:46;33.50;;;18.83;;
78489;SDS011;67776;52.012;4.736;2023-06-22T04:22:12;31.07;;;18.13;;
78489;SDS011;67776;52.012;4.736;2023-06-22T04:24:37;30.37;;;18.07;;
78489;SDS011;67776;52.012;4.736;2023-06-22T04:27:03;28.23;;;16.80;;
78489;SDS011;67776;52.012;4.736;2023-06-22T04:29:29;28.43;;;17.07;;
78489;SDS011;67776;52.012;4.736;2023-06-22T04:31:58;27.55;;;15.88;;
78489;SDS011;67776;52.012;4.736;2023-06-22T04:34:28;29.33;;;16.33;;
78489;SDS011;67776;52.012;4.736;2023-06-22T04:36:53;26.73;;;15.90;;
78489;SDS011;67776;52.012;4.736;2023-06-22T04:39:25;27.95;;;16.25;;
78489;SDS011;67776;52.012;4.736;2023-06-22T04:41:52;27.20;;;15.40;;
78489;SDS011;67776;52.012;4.736;2023-06-22T04:44:18;24.97;;;16.00;;
78489;SDS011;67776;52.012;4.736;2023-06-22T04:46:56;25.52;;;15.15;;
78489;SDS011;67776;52.012;4.736;2023-06-22T04:49:25;26.85;;;15.68;;
78489;SDS011;67776;52.012;4.736;2023-06-22T04:51:57;23.63;;;14.47;;
78489;SDS011;67776;52.012;4.736;2023-06-22T04:54:23;26.70;;;15.60;;
78489;SDS011;67776;52.012;4.736;2023-06-22T04:56:49;25.70;;;15.53;;
78489;SDS011;67776;52.012;4.736;2023-06-22T04:59:28;23.77;;;14.73;;
78489;SDS011;67776;52.012;4.736;2023-06-22T05:01:58;23.48;;;13.68;;
78489;SDS011;67776;52.012;4.736;2023-06-22T05:04:24;22.50;;;13.70;;
78489;SDS011;67776;52.012;4.736;2023-06-22T05:06:52;23.50;;;13.50;;
78489;SDS011;67776;52.012;4.736;2023-06-22T05:09:18;21.30;;;12.80;;
78489;SDS011;67776;52.012;4.736;2023-06-22T05:11:44;21.83;;;12.80;;
78489;SDS011;67776;52.012;4.736;2023-06-22T05:14:09;21.27;;;13.50;;
78489;SDS011;67776;52.012;4.736;2023-06-22T05:16:36;19.87;;;13.30;;
78489;SDS011;67776;52.012;4.736;2023-06-22T05:19:02;20.92;;;13.00;;
78489;SDS011;67776;52.012;4.736;2023-06-22T05:21:29;21.23;;;12.80;;
78489;SDS011;67776;52.012;4.736;2023-06-22T05:23:55;22.92;;;13.50;;
78489;SDS011;67776;52.012;4.736;2023-06-22T05:26:25;22.30;;;12.95;;
78489;SDS011;67776;52.012;4.736;2023-06-22T05:28:51;21.43;;;12.97;;
78489;SDS011;67776;52.012;4.736;2023-06-22T05:31:17;20.65;;;13.27;;
78489;SDS011;67776;52.012;4.736;2023-06-22T05:33:44;20.95;;;13.68;;
78489;SDS011;67776;52.012;4.736;2023-06-22T05:36:10;22.80;;;13.13;;
78489;SDS011;67776;52.012;4.736;2023-06-22T05:38:36;20.43;;;13.23;;
78489;SDS011;67776;52.012;4.736;2023-06-22T05:41:02;20.88;;;12.95;;
78489;SDS011;67776;52.012;4.736;2023-06-22T05:43:27;22.57;;;13.40;;
78489;SDS011;67776;52.012;4.736;2023-06-22T05:45:52;23.07;;;14.63;;
78489;SDS011;67776;52.012;4.736;2023-06-22T05:48:18;19.67;;;12.77;;
78489;SDS011;67776;52.012;4.736;2023-06-22T05:50:43;19.27;;;12.63;;
78489;SDS011;67776;52.012;4.736;2023-06-22T05:53:09;19.60;;;12.63;;
78489;SDS011;67776;52.012;4.736;2023-06-22T05:55:34;20.37;;;12.87;;
78489;SDS011;67776;52.012;4.736;2023-06-22T05:57:59;20.13;;;13.03;;
78489;SDS011;67776;52.012;4.736;2023-06-22T06:00:25;21.65;;;13.65;;
78489;SDS011;67776;52.012;4.736;2023-06-22T06:02:50;21.00;;;13.50;;
78489;SDS011;67776;52.012;4.736;2023-06-22T06:05:19;20.03;;;13.00;;
78489;SDS011;67776;52.012;4.736;2023-06-22T06:07:45;22.35;;;13.68;;
78489;SDS011;67776;52.012;4.736;2023-06-22T06:10:11;21.55;;;12.55;;
78489;SDS011;67776;52.012;4.736;2023-06-22T06:12:36;21.47;;;13.33;;
78489;SDS011;67776;52.012;4.736;2023-06-22T06:15:02;20.10;;;12.65;;
78489;SDS011;67776;52.012;4.736;2023-06-22T06:17:28;20.50;;;12.47;;
78489;SDS011;67776;52.012;4.736;2023-06-22T06:19:54;22.80;;;14.07;;
78489;SDS011;67776;52.012;4.736;2023-06-22T06:22:19;19.60;;;12.60;;
78489;SDS011;67776;52.012;4.736;2023-06-22T06:24:49;20.55;;;13.10;;
78489;SDS011;67776;52.012;4.736;2023-06-22T06:27:14;21.47;;;13.43;;
78489;SDS011;67776;52.012;4.736;2023-06-22T06:29:40;25.25;;;13.73;;
78489;SDS011;67776;52.012;4.736;2023-06-22T06:32:05;22.03;;;12.70;;
78489;SDS011;67776;52.012;4.736;2023-06-22T06:34:31;18.25;;;12.45;;
78489;SDS011;67776;52.012;4.736;2023-06-22T06:36:56;18.23;;;12.10;;
78489;SDS011;67776;52.012;4.736;2023-06-22T06:39:22;19.70;;;12.17;;
78489;SDS011;67776;52.012;4.736;2023-06-22T06:41:47;20.53;;;12.67;;
78489;SDS011;67776;52.012;4.736;2023-06-22T06:44:19;20.08;;;12.30;;
78489;SDS011;67776;52.012;4.736;2023-06-22T06:46:44;20.03;;;11.80;;
78489;SDS011;67776;52.012;4.736;2023-06-22T06:49:13;18.63;;;12.00;;
78489;SDS011;67776;52.012;4.736;2023-06-22T06:51:38;18.97;;;12.00;;
78489;SDS011;67776;52.012;4.736;2023-06-22T06:54:03;18.15;;;11.60;;
78489;SDS011;67776;52.012;4.736;2023-06-22T06:56:29;17.77;;;11.63;;
78489;SDS011;67776;52.012;4.736;2023-06-22T06:58:55;17.70;;;11.82;;
78489;SDS011;67776;52.012;4.736;2023-06-22T07:01:20;17.77;;;11.00;;
78489;SDS011;67776;52.012;4.736;2023-06-22T07:03:49;17.93;;;11.17;;
78489;SDS011;67776;52.012;4.736;2023-06-22T07:06:14;17.35;;;11.40;;
78489;SDS011;67776;52.012;4.736;2023-06-22T07:08:41;17.40;;;11.32;;
78489;SDS011;67776;52.012;4.736;2023-06-22T07:11:07;17.08;;;11.10;;
78489;SDS011;67776;52.012;4.736;2023-06-22T07:13:33;18.67;;;10.80;;
78489;SDS011;67776;52.012;4.736;2023-06-22T07:15:58;19.23;;;11.80;;
78489;SDS011;67776;52.012;4.736;2023-06-22T07:18:24;17.97;;;11.37;;
78489;SDS011;67776;52.012;4.736;2023-06-22T07:20:49;18.05;;;12.18;;
78489;SDS011;67776;52.012;4.736;2023-06-22T07:23:14;17.33;;;11.50;;
78489;SDS011;67776;52.012;4.736;2023-06-22T07:25:40;17.93;;;11.20;;
78489;SDS011;67776;52.012;4.736;2023-06-22T07:28:06;16.80;;;10.60;;
78489;SDS011;67776;52.012;4.736;2023-06-22T07:30:32;17.80;;;11.07;;
78489;SDS011;67776;52.012;4.736;2023-06-22T07:32:58;17.70;;;11.60;;
78489;SDS011;67776;52.012;4.736;2023-06-22T07:35:28;18.90;;;11.75;;
78489;SDS011;67776;52.012;4.736;2023-06-22T07:37:54;21.45;;;11.82;;
78489;SDS011;67776;52.012;4.736;2023-06-22T07:40:22;18.37;;;11.63;;
78489;SDS011;67776;52.012;4.736;2023-06-22T07:42:48;17.35;;;11.93;;
78489;SDS011;67776;52.012;4.736;2023-06-22T07:45:13;16.73;;;11.53;;
78489;SDS011;67776;52.012;4.736;2023-06-22T07:47:39;21.42;;;12.32;;
78489;SDS011;67776;52.012;4.736;2023-06-22T07:50:05;17.57;;;11.87;;
78489;SDS011;67776;52.012;4.736;2023-06-22T07:52:31;19.05;;;12.43;;
78489;SDS011;67776;52.012;4.736;2023-06-22T07:54:57;19.05;;;12.60;;
78489;SDS011;67776;52.012;4.736;2023-06-22T07:57:22;18.07;;;12.20;;
78489;SDS011;67776;52.012;4.736;2023-06-22T07:59:48;19.47;;;12.87;;
78489;SDS011;67776;52.012;4.736;2023-06-22T08:02:13;23.38;;;13.77;;
78489;SDS011;67776;52.012;4.736;2023-06-22T08:04:39;21.27;;;14.07;;
78489;SDS011;67776;52.012;4.736;2023-06-22T08:07:05;21.27;;;15.15;;
78489;SDS011;67776;52.012;4.736;2023-06-22T08:09:36;22.73;;;15.83;;
78489;SDS011;67776;52.012;4.736;2023-06-22T08:12:13;22.58;;;15.57;;
78489;SDS011;67776;52.012;4.736;2023-06-22T08:14:42;27.40;;;17.10;;
78489;SDS011;67776;52.012;4.736;2023-06-22T08:17:09;23.40;;;15.57;;
78489;SDS011;67776;52.012;4.736;2023-06-22T08:19:34;22.88;;;17.17;;
78489;SDS011;67776;52.012;4.736;2023-06-22T08:22:04;23.92;;;15.90;;
78489;SDS011;67776;52.012;4.736;2023-06-22T08:24:29;25.70;;;16.57;;
78489;SDS011;67776;52.012;4.736;2023-06-22T08:26:57;23.73;;;16.58;;
78489;SDS011;67776;52.012;4.736;2023-06-22T08:29:23;26.25;;;17.08;;
78489;SDS011;67776;52.012;4.736;2023-06-22T08:31:48;25.73;;;16.77;;
78489;SDS011;67776;52.012;4.736;2023-06-22T08:34:13;23.07;;;16.33;;
78489;SDS011;67776;52.012;4.736;2023-06-22T08:36:39;24.00;;;17.73;;
78489;SDS011;67776;52.012;4.736;2023-06-22T08:39:06;24.92;;;16.70;;
78489;SDS011;67776;52.012;4.736;2023-06-22T08:41:35;23.50;;;16.33;;
78489;SDS011;67776;52.012;4.736;2023-06-22T08:44:00;23.13;;;16.33;;
78489;SDS011;67776;52.012;4.736;2023-06-22T08:46:25;22.80;;;15.67;;
78489;SDS011;67776;52.012;4.736;2023-06-22T08:48:55;20.80;;;15.30;;
78489;SDS011;67776;52.012;4.736;2023-06-22T08:51:22;22.58;;;16.15;;
78489;SDS011;67776;52.012;4.736;2023-06-22T08:53:49;21.27;;;15.63;;
78489;SDS011;67776;52.012;4.736;2023-06-22T08:56:15;21.90;;;15.00;;
78489;SDS011;67776;52.012;4.736;2023-06-22T08:58:41;20.10;;;14.33;;
78489;SDS011;67776;52.012;4.736;2023-06-22T09:01:06;17.77;;;13.00;;
78489;SDS011;67776;52.012;4.736;2023-06-22T09:03:32;16.83;;;12.63;;
78489;SDS011;67776;52.012;4.736;2023-06-22T09:05:58;17.02;;;12.43;;
78489;SDS011;67776;52.012;4.736;2023-06-22T09:08:24;17.02;;;12.43;;
78489;SDS011;67776;52.012;4.736;2023-06-22T09:10:50;18.67;;;12.57;;
78489;SDS011;67776;52.012;4.736;2023-06-22T09:13:15;19.00;;;13.13;;
78489;SDS011;67776;52.012;4.736;2023-06-22T09:15:58;18.40;;;13.17;;
78489;SDS011;67776;52.012;4.736;2023-06-22T09:18:23;17.17;;;12.17;;
78489;SDS011;67776;52.012;4.736;2023-06-22T09:20:49;16.58;;;12.63;;
78489;SDS011;67776;52.012;4.736;2023-06-22T09:23:14;19.20;;;12.13;;
78489;SDS011;67776;52.012;4.736;2023-06-22T09:25:39;19.03;;;13.63;;
78489;SDS011;67776;52.012;4.736;2023-06-22T09:28:08;18.60;;;13.73;;
78489;SDS011;67776;52.012;4.736;2023-06-22T09:30:33;15.70;;;11.77;;
78489;SDS011;67776;52.012;4.736;2023-06-22T09:32:58;15.53;;;10.60;;
78489;SDS011;67776;52.012;4.736;2023-06-22T09:35:24;15.52;;;10.23;;
78489;SDS011;67776;52.012;4.736;2023-06-22T09:37:50;14.80;;;10.87;;
78489;SDS011;67776;52.012;4.736;2023-06-22T09:40:15;15.03;;;11.50;;
78489;SDS011;67776;52.012;4.736;2023-06-22T09:42:43;14.95;;;9.85;;
78489;SDS011;67776;52.012;4.736;2023-06-22T09:45:08;13.73;;;10.17;;
78489;SDS011;67776;52.012;4.736;2023-06-22T09:47:34;16.60;;;10.95;;
78489;SDS011;67776;52.012;4.736;2023-06-22T09:49:59;17.53;;;10.47;;
78489;SDS011;67776;52.012;4.736;2023-06-22T09:52:26;14.47;;;10.77;;
78489;SDS011;67776;52.012;4.736;2023-06-22T09:54:52;15.18;;;10.80;;
78489;SDS011;67776;52.012;4.736;2023-06-22T09:57:17;14.37;;;10.37;;
78489;SDS011;67776;52.012;4.736;2023-06-22T09:59:43;14.50;;;10.90;;
78489;SDS011;67776;52.012;4.736;2023-06-22T10:02:08;14.10;;;9.40;;
78489;SDS011;67776;52.012;4.736;2023-06-22T10:04:34;14.20;;;9.40;;
78489;SDS011;67776;52.012;4.736;2023-06-22T10:07:00;12.90;;;9.20;;
78489;SDS011;67776;52.012;4.736;2023-06-22T10:09:26;13.52;;;8.90;;
78489;SDS011;67776;52.012;4.736;2023-06-22T10:11:52;13.07;;;9.30;;
78489;SDS011;67776;52.012;4.736;2023-06-22T10:14:17;12.63;;;9.10;;
78489;SDS011;67776;52.012;4.736;2023-06-22T10:16:42;12.32;;;9.27;;
78489;SDS011;67776;52.012;4.736;2023-06-22T10:19:08;13.73;;;9.30;;
78489;SDS011;67776;52.012;4.736;2023-06-22T10:21:33;13.03;;;10.07;;
78489;SDS011;67776;52.012;4.736;2023-06-22T10:23:59;14.25;;;10.30;;
78489;SDS011;67776;52.012;4.736;2023-06-22T10:26:30;13.77;;;9.55;;
78489;SDS011;67776;52.012;4.736;2023-06-22T10:28:57;16.27;;;9.87;;
78489;SDS011;67776;52.012;4.736;2023-06-22T10:31:22;14.73;;;9.50;;
78489;SDS011;67776;52.012;4.736;2023-06-22T10:33:48;14.05;;;9.55;;
78489;SDS011;67776;52.012;4.736;2023-06-22T10:36:14;12.47;;;8.40;;
78489;SDS011;67776;52.012;4.736;2023-06-22T10:38:40;11.55;;;8.75;;
78489;SDS011;67776;52.012;4.736;2023-06-22T10:41:05;11.20;;;8.67;;
78489;SDS011;67776;52.012;4.736;2023-06-22T10:43:31;11.93;;;8.67;;
78489;SDS011;67776;52.012;4.736;2023-06-22T10:45:56;12.37;;;8.37;;
78489;SDS011;67776;52.012;4.736;2023-06-22T10:48:21;12.37;;;8.73;;
78489;SDS011;67776;52.012;4.736;2023-06-22T10:50:47;11.83;;;8.03;;
78489;SDS011;67776;52.012;4.736;2023-06-22T10:53:12;12.37;;;8.80;;
78489;SDS011;67776;52.012;4.736;2023-06-22T10:55:37;12.17;;;9.73;;
78489;SDS011;67776;52.012;4.736;2023-06-22T10:58:03;14.23;;;10.37;;
78489;SDS011;67776;52.012;4.736;2023-06-22T11:00:28;15.75;;;11.95;;
78489;SDS011;67776;52.012;4.736;2023-06-22T11:02:54;16.23;;;13.60;;
78489;SDS011;67776;52.012;4.736;2023-06-22T11:05:19;17.37;;;14.10;;
78489;SDS011;67776;52.012;4.736;2023-06-22T11:07:44;17.70;;;13.80;;
78489;SDS011;67776;52.012;4.736;2023-06-22T11:10:10;18.23;;;13.47;;
78489;SDS011;67776;52.012;4.736;2023-06-22T11:12:37;20.58;;;15.13;;
78489;SDS011;67776;52.012;4.736;2023-06-22T11:15:02;18.37;;;14.63;;
78489;SDS011;67776;52.012;4.736;2023-06-22T11:17:28;18.50;;;14.18;;
78489;SDS011;67776;52.012;4.736;2023-06-22T11:19:53;18.83;;;13.80;;
78489;SDS011;67776;52.012;4.736;2023-06-22T11:22:18;17.93;;;13.57;;
78489;SDS011;67776;52.012;4.736;2023-06-22T11:24:44;18.93;;;13.20;;
78489;SDS011;67776;52.012;4.736;2023-06-22T11:27:09;17.53;;;13.13;;
78489;SDS011;67776;52.012;4.736;2023-06-22T11:29:34;18.77;;;12.43;;
78489;SDS011;67776;52.012;4.736;2023-06-22T11:32:00;15.55;;;11.75;;
78489;SDS011;67776;52.012;4.736;2023-06-22T11:34:26;15.40;;;11.47;;
78489;SDS011;67776;52.012;4.736;2023-06-22T11:36:53;18.10;;;11.90;;
78489;SDS011;67776;52.012;4.736;2023-06-22T11:39:18;19.50;;;14.97;;
78489;SDS011;67776;52.012;4.736;2023-06-22T11:41:43;21.87;;;16.03;;
78489;SDS011;67776;52.012;4.736;2023-06-22T11:44:09;24.17;;;17.57;;
78489;SDS011;67776;52.012;4.736;2023-06-22T11:46:34;25.38;;;17.67;;
78489;SDS011;67776;52.012;4.736;2023-06-22T11:49:00;23.83;;;17.73;;
78489;SDS011;67776;52.012;4.736;2023-06-22T11:51:27;24.77;;;17.75;;
78489;SDS011;67776;52.012;4.736;2023-06-22T11:53:53;25.27;;;18.03;;
78489;SDS011;67776;52.012;4.736;2023-06-22T11:56:18;25.20;;;18.08;;
78489;SDS011;67776;52.012;4.736;2023-06-22T11:58:44;29.33;;;18.77;;
78489;SDS011;67776;52.012;4.736;2023-06-22T12:01:09;24.37;;;18.03;;
78489;SDS011;67776;52.012;4.736;2023-06-22T12:03:34;26.77;;;18.00;;
78489;SDS011;67776;52.012;4.736;2023-06-22T12:06:00;24.55;;;18.05;;
78489;SDS011;67776;52.012;4.736;2023-06-22T12:08:25;28.23;;;18.97;;
78489;SDS011;67776;52.012;4.736;2023-06-22T12:10:51;27.33;;;18.80;;
78489;SDS011;67776;52.012;4.736;2023-06-22T12:13:16;24.02;;;17.88;;
78489;SDS011;67776;52.012;4.736;2023-06-22T12:15:42;27.03;;;19.67;;
78489;SDS011;67776;52.012;4.736;2023-06-22T12:18:08;26.97;;;18.50;;
78489;SDS011;67776;52.012;4.736;2023-06-22T12:20:34;24.75;;;19.08;;
78489;SDS011;67776;52.012;4.736;2023-06-22T12:22:59;29.20;;;19.97;;
78489;SDS011;67776;52.012;4.736;2023-06-22T12:25:24;30.50;;;20.73;;
78489;SDS011;67776;52.012;4.736;2023-06-22T12:27:50;26.45;;;20.10;;
78489;SDS011;67776;52.012;4.736;2023-06-22T12:30:16;26.57;;;20.77;;
78489;SDS011;67776;52.012;4.736;2023-06-22T12:32:41;28.35;;;20.42;;
78489;SDS011;67776;52.012;4.736;2023-06-22T12:35:07;27.70;;;20.87;;
78489;SDS011;67776;52.012;4.736;2023-06-22T12:37:39;26.77;;;20.30;;
78489;SDS011;67776;52.012;4.736;2023-06-22T12:40:05;27.92;;;21.20;;
78489;SDS011;67776;52.012;4.736;2023-06-22T12:42:31;25.13;;;19.40;;
78489;SDS011;67776;52.012;4.736;2023-06-22T12:44:57;27.83;;;20.10;;
78489;SDS011;67776;52.012;4.736;2023-06-22T12:47:22;25.80;;;19.67;;
78489;SDS011;67776;52.012;4.736;2023-06-22T12:49:47;27.13;;;19.67;;
78489;SDS011;67776;52.012;4.736;2023-06-22T12:52:13;25.23;;;19.90;;
78489;SDS011;67776;52.012;4.736;2023-06-22T12:54:38;30.60;;;22.13;;
78489;SDS011;67776;52.012;4.736;2023-06-22T12:57:04;26.92;;;20.67;;
78489;SDS011;67776;52.012;4.736;2023-06-22T12:59:29;27.83;;;19.97;;
78489;SDS011;67776;52.012;4.736;2023-06-22T13:01:54;30.57;;;21.07;;
78489;SDS011;67776;52.012;4.736;2023-06-22T13:04:20;28.03;;;21.10;;
78489;SDS011;67776;52.012;4.736;2023-06-22T13:06:49;30.38;;;20.27;;
78489;SDS011;67776;52.012;4.736;2023-06-22T13:09:14;29.55;;;20.90;;
78489;SDS011;67776;52.012;4.736;2023-06-22T13:11:41;28.67;;;21.00;;
78489;SDS011;67776;52.012;4.736;2023-06-22T13:14:07;28.98;;;20.50;;
78489;SDS011;67776;52.012;4.736;2023-06-22T13:16:33;29.20;;;20.67;;
78489;SDS011;67776;52.012;4.736;2023-06-22T13:18:58;37.83;;;21.33;;
78489;SDS011;67776;52.012;4.736;2023-06-22T13:21:23;28.90;;;21.07;;
78489;SDS011;67776;52.012;4.736;2023-06-22T13:23:49;27.37;;;20.77;;
78489;SDS011;67776;52.012;4.736;2023-06-22T13:26:14;27.80;;;20.80;;
78489;SDS011;67776;52.012;4.736;2023-06-22T13:28:40;29.95;;;21.25;;
78489;SDS011;67776;52.012;4.736;2023-06-22T13:31:05;31.93;;;21.60;;
78489;SDS011;67776;52.012;4.736;2023-06-22T13:33:30;31.57;;;21.63;;
78489;SDS011;67776;52.012;4.736;2023-06-22T13:35:56;28.67;;;21.93;;
78489;SDS011;67776;52.012;4.736;2023-06-22T13:38:21;30.50;;;22.50;;
78489;SDS011;67776;52.012;4.736;2023-06-22T13:40:47;32.83;;;23.17;;
78489;SDS011;67776;52.012;4.736;2023-06-22T13:43:13;30.45;;;22.65;;
78489;SDS011;67776;52.012;4.736;2023-06-22T13:45:38;32.13;;;22.60;;
78489;SDS011;67776;52.012;4.736;2023-06-22T13:48:04;29.77;;;23.03;;
78489;SDS011;67776;52.012;4.736;2023-06-22T13:50:29;30.77;;;23.17;;
78489;SDS011;67776;52.012;4.736;2023-06-22T13:52:55;30.63;;;22.87;;
78489;SDS011;67776;52.012;4.736;2023-06-22T13:55:23;33.92;;;23.13;;
78489;SDS011;67776;52.012;4.736;2023-06-22T14:01:33;22.60;;;16.98;;
78489;SDS011;67776;52.012;4.736;2023-06-22T14:03:59;24.43;;;16.70;;
78489;SDS011;67776;52.012;4.736;2023-06-22T14:06:24;21.47;;;14.47;;
78489;SDS011;67776;52.012;4.736;2023-06-22T14:08:49;20.60;;;14.07;;
78489;SDS011;67776;52.012;4.736;2023-06-22T14:11:16;24.20;;;15.77;;
78489;SDS011;67776;52.012;4.736;2023-06-22T14:13:44;21.60;;;14.25;;
78489;SDS011;67776;52.012;4.736;2023-06-22T14:16:10;21.70;;;14.60;;
78489;SDS011;67776;52.012;4.736;2023-06-22T14:18:36;23.33;;;14.97;;
78489;SDS011;67776;52.012;4.736;2023-06-22T14:21:01;22.47;;;14.43;;
78489;SDS011;67776;52.012;4.736;2023-06-22T14:23:27;19.27;;;13.70;;
78489;SDS011;67776;52.012;4.736;2023-06-22T14:25:52;20.00;;;13.57;;
78489;SDS011;67776;52.012;4.736;2023-06-22T14:28:17;21.38;;;14.35;;